sensor_id;sensor_type;location;lat;lon;timestamp;temperature;humidity
19817;DHT22;68323;49.394;8.434;2023-12-20T00:00:00;7.10;99.90
19817;DHT22;68323;49.394;8.434;2023-12-20T00:02:26;7.10;99.90
19817;DHT22;68323;49.394;8.434;2023-12-20T00:04:51;7.10;99.90
19817;DHT22;68323;49.394;8.434;2023-12-20T00:07:20;7.20;99.90
19817;DHT22;68323;49.394;8.434;2023-12-20T00:09:46;7.20;99.90
19817;DHT22;68323;49.394;8.434;2023-12-20T00:12:11;7.20;99.90
19817;DHT22;68323;49.394;8.434;2023-12-20T00:14:42;7.20;99.90
19817;DHT22;68323;49.394;8.434;2023-12-20T00:17:08;7.20;99.90
19817;DHT22;68323;49.394;8.434;2023-12-20T00:19:36;7.30;99.90
19817;DHT22;68323;49.394;8.434;2023-12-20T00:22:02;7.20;99.90
19817;DHT22;68323;49.394;8.434;2023-12-20T00:24:27;7.20;99.90
19817;DHT22;68323;49.394;8.434;2023-12-20T00:26:53;7.20;99.90
19817;DHT22;68323;49.394;8.434;2023-12-20T00:29:24;7.20;99.90
19817;DHT22;68323;49.394;8.434;2023-12-20T00:31:50;7.20;99.90
19817;DHT22;68323;49.394;8.434;2023-12-20T00:34:15;7.30;99.90
19817;DHT22;68323;49.394;8.434;2023-12-20T00:36:44;7.30;99.90
19817;DHT22;68323;49.394;8.434;2023-12-20T00:39:09;7.20;99.90
19817;DHT22;68323;49.394;8.434;2023-12-20T00:41:35;7.20;99.90
19817;DHT22;68323;49.394;8.434;2023-12-20T00:44:03;7.20;99.90
19817;DHT22;68323;49.394;8.434;2023-12-20T00:46:28;7.20;99.90
19817;DHT22;68323;49.394;8.434;2023-12-20T00:48:54;7.20;99.90
19817;DHT22;68323;49.394;8.434;2023-12-20T00:51:20;7.20;99.90
19817;DHT22;68323;49.394;8.434;2023-12-20T00:53:45;7.20;99.90
19817;DHT22;68323;49.394;8.434;2023-12-20T00:56:17;7.20;99.90
19817;DHT22;68323;49.394;8.434;2023-12-20T00:58:43;7.20;99.90
19817;DHT22;68323;49.394;8.434;2023-12-20T01:01:11;7.20;99.90
19817;DHT22;68323;49.394;8.434;2023-12-20T01:03:38;7.20;99.90
19817;DHT22;68323;49.394;8.434;2023-12-20T01:06:04;7.20;99.90
19817;DHT22;68323;49.394;8.434;2023-12-20T01:08:37;7.20;99.90
19817;DHT22;68323;49.394;8.434;2023-12-20T01:11:06;7.20;99.90
19817;DHT22;68323;49.394;8.434;2023-12-20T01:13:31;7.20;99.90
19817;DHT22;68323;49.394;8.434;2023-12-20T01:16:00;7.20;99.90
19817;DHT22;68323;49.394;8.434;2023-12-20T01:18:25;7.20;99.90
19817;DHT22;68323;49.394;8.434;2023-12-20T01:20:51;7.20;99.90
19817;DHT22;68323;49.394;8.434;2023-12-20T01:23:19;7.20;99.90
19817;DHT22;68323;49.394;8.434;2023-12-20T01:25:48;7.10;99.90
19817;DHT22;68323;49.394;8.434;2023-12-20T01:28:14;7.10;99.90
19817;DHT22;68323;49.394;8.434;2023-12-20T01:30:39;7.10;99.90
19817;DHT22;68323;49.394;8.434;2023-12-20T01:33:05;7.10;99.90
19817;DHT22;68323;49.394;8.434;2023-12-20T01:35:33;7.10;99.90
19817;DHT22;68323;49.394;8.434;2023-12-20T01:38:01;7.10;99.90
19817;DHT22;68323;49.394;8.434;2023-12-20T01:40:26;7.10;99.90
19817;DHT22;68323;49.394;8.434;2023-12-20T01:43:00;7.10;99.90
19817;DHT22;68323;49.394;8.434;2023-12-20T01:45:28;7.10;99.90
19817;DHT22;68323;49.394;8.434;2023-12-20T01:47:59;7.10;99.90
19817;DHT22;68323;49.394;8.434;2023-12-20T01:50:28;7.00;99.90
19817;DHT22;68323;49.394;8.434;2023-12-20T01:52:55;7.10;99.90
19817;DHT22;68323;49.394;8.434;2023-12-20T01:55:26;7.10;99.90
19817;DHT22;68323;49.394;8.434;2023-12-20T01:57:53;7.10;99.90
19817;DHT22;68323;49.394;8.434;2023-12-20T02:00:19;7.10;99.90
19817;DHT22;68323;49.394;8.434;2023-12-20T02:02:50;7.10;99.90
19817;DHT22;68323;49.394;8.434;2023-12-20T02:05:18;7.10;99.90
19817;DHT22;68323;49.394;8.434;2023-12-20T02:07:46;7.10;99.90
19817;DHT22;68323;49.394;8.434;2023-12-20T02:10:12;7.10;99.90
19817;DHT22;68323;49.394;8.434;2023-12-20T02:12:38;7.10;99.90
19817;DHT22;68323;49.394;8.434;2023-12-20T02:15:04;7.10;99.90
19817;DHT22;68323;49.394;8.434;2023-12-20T02:17:32;7.10;99.90
19817;DHT22;68323;49.394;8.434;2023-12-20T02:20:02;7.10;99.90
19817;DHT22;68323;49.394;8.434;2023-12-20T02:22:30;7.10;99.90
19817;DHT22;68323;49.394;8.434;2023-12-20T02:24:56;7.10;99.90
19817;DHT22;68323;49.394;8.434;2023-12-20T02:27:22;7.10;99.90
19817;DHT22;68323;49.394;8.434;2023-12-20T02:29:53;7.10;99.90
19817;DHT22;68323;49.394;8.434;2023-12-20T02:32:21;7.00;99.90
19817;DHT22;68323;49.394;8.434;2023-12-20T02:34:48;7.00;99.90
19817;DHT22;68323;49.394;8.434;2023-12-20T02:37:14;7.00;99.90
19817;DHT22;68323;49.394;8.434;2023-12-20T02:39:40;7.00;99.90
19817;DHT22;68323;49.394;8.434;2023-12-20T02:42:06;7.00;99.90
19817;DHT22;68323;49.394;8.434;2023-12-20T02:44:31;7.00;99.90
19817;DHT22;68323;49.394;8.434;2023-12-20T02:46:57;7.00;99.90
19817;DHT22;68323;49.394;8.434;2023-12-20T02:49:23;7.00;99.90
19817;DHT22;68323;49.394;8.434;2023-12-20T02:51:49;7.00;99.90
19817;DHT22;68323;49.394;8.434;2023-12-20T02:54:17;7.00;99.90
19817;DHT22;68323;49.394;8.434;2023-12-20T02:56:42;7.00;99.90
19817;DHT22;68323;49.394;8.434;2023-12-20T02:59:08;7.00;99.90
19817;DHT22;68323;49.394;8.434;2023-12-20T03:01:34;7.00;99.90
19817;DHT22;68323;49.394;8.434;2023-12-20T03:04:01;7.00;99.90
19817;DHT22;68323;49.394;8.434;2023-12-20T03:06:26;7.00;99.90
19817;DHT22;68323;49.394;8.434;2023-12-20T03:08:55;7.00;99.90
19817;DHT22;68323;49.394;8.434;2023-12-20T03:11:26;7.00;99.90
19817;DHT22;68323;49.394;8.434;2023-12-20T03:13:52;7.00;99.90
19817;DHT22;68323;49.394;8.434;2023-12-20T03:16:17;7.00;99.90
19817;DHT22;68323;49.394;8.434;2023-12-20T03:18:43;7.00;99.90
19817;DHT22;68323;49.394;8.434;2023-12-20T03:21:09;7.00;99.90
19817;DHT22;68323;49.394;8.434;2023-12-20T03:23:34;7.00;99.90
19817;DHT22;68323;49.394;8.434;2023-12-20T03:26:00;7.00;99.90
19817;DHT22;68323;49.394;8.434;2023-12-20T03:28:29;7.10;99.90
19817;DHT22;68323;49.394;8.434;2023-12-20T03:30:58;7.10;99.90
19817;DHT22;68323;49.394;8.434;2023-12-20T03:33:23;7.00;99.90
19817;DHT22;68323;49.394;8.434;2023-12-20T03:35:49;7.00;99.90
19817;DHT22;68323;49.394;8.434;2023-12-20T03:38:18;7.00;99.90
19817;DHT22;68323;49.394;8.434;2023-12-20T03:40:43;7.00;99.90
19817;DHT22;68323;49.394;8.434;2023-12-20T03:43:09;7.00;99.90
19817;DHT22;68323;49.394;8.434;2023-12-20T03:45:35;7.00;99.90
19817;DHT22;68323;49.394;8.434;2023-12-20T03:48:00;7.00;99.90
19817;DHT22;68323;49.394;8.434;2023-12-20T03:50:26;7.00;99.90
19817;DHT22;68323;49.394;8.434;2023-12-20T03:52:52;7.10;99.90
19817;DHT22;68323;49.394;8.434;2023-12-20T03:55:23;7.10;99.90
19817;DHT22;68323;49.394;8.434;2023-12-20T03:57:48;7.10;99.90
19817;DHT22;68323;49.394;8.434;2023-12-20T04:00:14;7.10;99.90
19817;DHT22;68323;49.394;8.434;2023-12-20T04:02:41;7.10;99.90
19817;DHT22;68323;49.394;8.434;2023-12-20T04:05:10;7.10;99.90
19817;DHT22;68323;49.394;8.434;2023-12-20T04:07:36;7.10;99.90
19817;DHT22;68323;49.394;8.434;2023-12-20T04:10:04;7.10;99.90
19817;DHT22;68323;49.394;8.434;2023-12-20T04:12:31;7.20;99.90
19817;DHT22;68323;49.394;8.434;2023-12-20T04:14:59;7.10;99.90
19817;DHT22;68323;49.394;8.434;2023-12-20T04:17:25;7.10;99.90
19817;DHT22;68323;49.394;8.434;2023-12-20T04:19:51;7.20;99.90
19817;DHT22;68323;49.394;8.434;2023-12-20T04:22:20;7.10;99.90
19817;DHT22;68323;49.394;8.434;2023-12-20T04:24:48;7.20;99.90
19817;DHT22;68323;49.394;8.434;2023-12-20T04:27:14;7.20;99.90
19817;DHT22;68323;49.394;8.434;2023-12-20T04:29:39;7.20;99.90
19817;DHT22;68323;49.394;8.434;2023-12-20T04:32:05;7.20;99.90
19817;DHT22;68323;49.394;8.434;2023-12-20T04:34:31;7.20;99.90
19817;DHT22;68323;49.394;8.434;2023-12-20T04:36:59;7.30;99.90
19817;DHT22;68323;49.394;8.434;2023-12-20T04:39:28;7.30;99.90
19817;DHT22;68323;49.394;8.434;2023-12-20T04:41:54;7.40;99.90
19817;DHT22;68323;49.394;8.434;2023-12-20T04:44:19;7.30;99.90
19817;DHT22;68323;49.394;8.434;2023-12-20T04:46:48;7.40;99.90
19817;DHT22;68323;49.394;8.434;2023-12-20T04:49:13;7.40;99.90
19817;DHT22;68323;49.394;8.434;2023-12-20T04:51:39;7.40;99.90
19817;DHT22;68323;49.394;8.434;2023-12-20T04:54:05;7.50;99.90
19817;DHT22;68323;49.394;8.434;2023-12-20T04:56:32;7.50;99.90
19817;DHT22;68323;49.394;8.434;2023-12-20T04:58:58;7.50;99.90
19817;DHT22;68323;49.394;8.434;2023-12-20T05:01:27;7.50;99.90
19817;DHT22;68323;49.394;8.434;2023-12-20T05:03:52;7.50;99.90
19817;DHT22;68323;49.394;8.434;2023-12-20T05:06:21;7.60;99.90
19817;DHT22;68323;49.394;8.434;2023-12-20T05:08:47;7.50;99.90
19817;DHT22;68323;49.394;8.434;2023-12-20T05:11:12;7.50;99.90
19817;DHT22;68323;49.394;8.434;2023-12-20T05:13:43;7.50;99.90
19817;DHT22;68323;49.394;8.434;2023-12-20T05:16:09;7.50;99.90
19817;DHT22;68323;49.394;8.434;2023-12-20T05:18:34;7.60;99.90
19817;DHT22;68323;49.394;8.434;2023-12-20T05:21:03;7.50;99.90
19817;DHT22;68323;49.394;8.434;2023-12-20T05:23:29;7.50;99.90
19817;DHT22;68323;49.394;8.434;2023-12-20T05:25:55;7.50;99.90
19817;DHT22;68323;49.394;8.434;2023-12-20T05:28:23;7.60;99.90
19817;DHT22;68323;49.394;8.434;2023-12-20T05:30:49;7.60;99.90
19817;DHT22;68323;49.394;8.434;2023-12-20T05:33:14;7.60;99.90
19817;DHT22;68323;49.394;8.434;2023-12-20T05:35:40;7.60;99.90
19817;DHT22;68323;49.394;8.434;2023-12-20T05:38:06;7.60;99.90
19817;DHT22;68323;49.394;8.434;2023-12-20T05:40:37;7.60;99.90
19817;DHT22;68323;49.394;8.434;2023-12-20T05:43:06;7.60;99.90
19817;DHT22;68323;49.394;8.434;2023-12-20T05:45:34;7.60;99.90
19817;DHT22;68323;49.394;8.434;2023-12-20T05:48:00;7.70;99.90
19817;DHT22;68323;49.394;8.434;2023-12-20T05:50:28;7.70;99.90
19817;DHT22;68323;49.394;8.434;2023-12-20T05:52:53;7.70;99.90
19817;DHT22;68323;49.394;8.434;2023-12-20T05:55:19;7.70;99.90
19817;DHT22;68323;49.394;8.434;2023-12-20T05:57:45;7.80;99.90
19817;DHT22;68323;49.394;8.434;2023-12-20T06:00:19;7.80;99.90
19817;DHT22;68323;49.394;8.434;2023-12-20T06:02:48;7.80;99.90
19817;DHT22;68323;49.394;8.434;2023-12-20T06:05:16;7.80;99.90
19817;DHT22;68323;49.394;8.434;2023-12-20T06:07:51;7.90;99.90
19817;DHT22;68323;49.394;8.434;2023-12-20T06:10:17;7.90;99.90
19817;DHT22;68323;49.394;8.434;2023-12-20T06:12:43;8.00;99.90
19817;DHT22;68323;49.394;8.434;2023-12-20T06:15:09;8.00;99.90
19817;DHT22;68323;49.394;8.434;2023-12-20T06:17:35;7.90;99.90
19817;DHT22;68323;49.394;8.434;2023-12-20T06:20:03;8.00;99.90
19817;DHT22;68323;49.394;8.434;2023-12-20T06:22:36;8.00;99.90
19817;DHT22;68323;49.394;8.434;2023-12-20T06:25:02;8.00;99.90
19817;DHT22;68323;49.394;8.434;2023-12-20T06:27:28;7.90;99.90
19817;DHT22;68323;49.394;8.434;2023-12-20T06:29:54;7.90;99.90
19817;DHT22;68323;49.394;8.434;2023-12-20T06:32:23;7.90;99.90
19817;DHT22;68323;49.394;8.434;2023-12-20T06:34:49;7.80;99.90
19817;DHT22;68323;49.394;8.434;2023-12-20T06:37:14;7.80;99.90
19817;DHT22;68323;49.394;8.434;2023-12-20T06:39:40;7.70;99.90
19817;DHT22;68323;49.394;8.434;2023-12-20T06:42:06;7.60;99.90
19817;DHT22;68323;49.394;8.434;2023-12-20T06:44:34;7.60;99.90
19817;DHT22;68323;49.394;8.434;2023-12-20T06:47:00;7.50;99.90
19817;DHT22;68323;49.394;8.434;2023-12-20T06:49:28;7.50;99.90
19817;DHT22;68323;49.394;8.434;2023-12-20T06:51:56;7.50;99.90
19817;DHT22;68323;49.394;8.434;2023-12-20T06:54:22;7.50;99.90
19817;DHT22;68323;49.394;8.434;2023-12-20T06:56:47;7.50;99.90
19817;DHT22;68323;49.394;8.434;2023-12-20T06:59:13;7.50;99.90
19817;DHT22;68323;49.394;8.434;2023-12-20T07:01:39;7.50;99.90
19817;DHT22;68323;49.394;8.434;2023-12-20T07:04:04;7.40;99.90
19817;DHT22;68323;49.394;8.434;2023-12-20T07:06:30;7.40;99.90
19817;DHT22;68323;49.394;8.434;2023-12-20T07:08:56;7.30;99.90
19817;DHT22;68323;49.394;8.434;2023-12-20T07:11:21;7.20;99.90
19817;DHT22;68323;49.394;8.434;2023-12-20T07:13:47;7.10;99.90
19817;DHT22;68323;49.394;8.434;2023-12-20T07:16:13;7.00;99.90
19817;DHT22;68323;49.394;8.434;2023-12-20T07:18:38;6.90;99.90
19817;DHT22;68323;49.394;8.434;2023-12-20T07:21:04;6.90;99.90
19817;DHT22;68323;49.394;8.434;2023-12-20T07:23:35;6.80;99.90
19817;DHT22;68323;49.394;8.434;2023-12-20T07:26:01;6.70;99.90
19817;DHT22;68323;49.394;8.434;2023-12-20T07:28:26;6.60;99.90
19817;DHT22;68323;49.394;8.434;2023-12-20T07:30:52;6.50;99.90
19817;DHT22;68323;49.394;8.434;2023-12-20T07:33:20;6.50;99.90
19817;DHT22;68323;49.394;8.434;2023-12-20T07:35:47;6.40;99.90
19817;DHT22;68323;49.394;8.434;2023-12-20T07:38:12;6.50;99.90
19817;DHT22;68323;49.394;8.434;2023-12-20T07:40:38;6.40;99.90
19817;DHT22;68323;49.394;8.434;2023-12-20T07:43:04;6.40;99.90
19817;DHT22;68323;49.394;8.434;2023-12-20T07:45:30;6.30;99.90
19817;DHT22;68323;49.394;8.434;2023-12-20T07:47:55;6.30;99.90
19817;DHT22;68323;49.394;8.434;2023-12-20T07:50:21;6.30;99.90
19817;DHT22;68323;49.394;8.434;2023-12-20T07:52:47;6.30;99.90
19817;DHT22;68323;49.394;8.434;2023-12-20T07:55:13;6.30;99.90
19817;DHT22;68323;49.394;8.434;2023-12-20T07:57:39;6.30;99.90
19817;DHT22;68323;49.394;8.434;2023-12-20T08:00:05;6.30;99.90
19817;DHT22;68323;49.394;8.434;2023-12-20T08:02:31;6.30;99.90
19817;DHT22;68323;49.394;8.434;2023-12-20T08:04:57;6.40;99.90
19817;DHT22;68323;49.394;8.434;2023-12-20T08:07:25;6.50;99.90
19817;DHT22;68323;49.394;8.434;2023-12-20T08:09:51;6.60;99.90
19817;DHT22;68323;49.394;8.434;2023-12-20T08:12:17;6.90;99.90
19817;DHT22;68323;49.394;8.434;2023-12-20T08:14:43;7.70;99.90
19817;DHT22;68323;49.394;8.434;2023-12-20T08:17:09;9.40;99.90
19817;DHT22;68323;49.394;8.434;2023-12-20T08:24:29;11.30;99.90
19817;DHT22;68323;49.394;8.434;2023-12-20T08:29:25;13.60;99.90
19817;DHT22;68323;49.394;8.434;2023-12-20T08:31:55;13.20;99.90
19817;DHT22;68323;49.394;8.434;2023-12-20T08:34:21;13.60;99.90
19817;DHT22;68323;49.394;8.434;2023-12-20T08:36:47;13.80;99.90
19817;DHT22;68323;49.394;8.434;2023-12-20T08:39:15;13.60;99.90
19817;DHT22;68323;49.394;8.434;2023-12-20T08:41:40;13.10;99.90
19817;DHT22;68323;49.394;8.434;2023-12-20T08:46:32;13.30;99.90
19817;DHT22;68323;49.394;8.434;2023-12-20T08:48:58;13.70;99.90
19817;DHT22;68323;49.394;8.434;2023-12-20T08:51:24;13.80;99.90
19817;DHT22;68323;49.394;8.434;2023-12-20T08:53:51;13.40;99.90
19817;DHT22;68323;49.394;8.434;2023-12-20T08:56:23;12.80;99.90
19817;DHT22;68323;49.394;8.434;2023-12-20T08:58:48;12.20;99.90
19817;DHT22;68323;49.394;8.434;2023-12-20T09:01:22;12.00;99.90
19817;DHT22;68323;49.394;8.434;2023-12-20T09:03:47;12.00;99.90
19817;DHT22;68323;49.394;8.434;2023-12-20T09:06:13;12.40;99.90
19817;DHT22;68323;49.394;8.434;2023-12-20T09:08:39;12.20;99.90
19817;DHT22;68323;49.394;8.434;2023-12-20T09:11:04;12.40;99.90
19817;DHT22;68323;49.394;8.434;2023-12-20T09:18:27;15.50;99.70
19817;DHT22;68323;49.394;8.434;2023-12-20T09:20:53;15.50;99.90
19817;DHT22;68323;49.394;8.434;2023-12-20T09:23:19;16.40;96.60
19817;DHT22;68323;49.394;8.434;2023-12-20T09:25:44;17.00;94.60
19817;DHT22;68323;49.394;8.434;2023-12-20T09:28:13;17.60;93.10
19817;DHT22;68323;49.394;8.434;2023-12-20T09:33:05;18.30;94.80
19817;DHT22;68323;49.394;8.434;2023-12-20T09:35:35;18.70;89.20
19817;DHT22;68323;49.394;8.434;2023-12-20T09:38:01;18.90;87.20
19817;DHT22;68323;49.394;8.434;2023-12-20T09:40:26;19.20;93.40
19817;DHT22;68323;49.394;8.434;2023-12-20T09:43:03;19.20;89.50
19817;DHT22;68323;49.394;8.434;2023-12-20T09:45:30;18.60;90.00
19817;DHT22;68323;49.394;8.434;2023-12-20T09:47:58;19.40;90.50
19817;DHT22;68323;49.394;8.434;2023-12-20T09:50:23;19.60;92.30
19817;DHT22;68323;49.394;8.434;2023-12-20T09:52:56;19.70;90.30
19817;DHT22;68323;49.394;8.434;2023-12-20T09:55:27;19.70;90.60
19817;DHT22;68323;49.394;8.434;2023-12-20T09:57:59;19.70;90.40
19817;DHT22;68323;49.394;8.434;2023-12-20T10:00:25;19.60;90.30
19817;DHT22;68323;49.394;8.434;2023-12-20T10:02:56;19.60;89.30
19817;DHT22;68323;49.394;8.434;2023-12-20T10:05:27;19.30;76.10
19817;DHT22;68323;49.394;8.434;2023-12-20T10:07:53;19.10;63.90
19817;DHT22;68323;49.394;8.434;2023-12-20T10:10:18;19.10;66.30
19817;DHT22;68323;49.394;8.434;2023-12-20T10:13:04;18.90;65.70
19817;DHT22;68323;49.394;8.434;2023-12-20T10:15:31;18.50;67.10
19817;DHT22;68323;49.394;8.434;2023-12-20T10:17:57;17.80;66.50
19817;DHT22;68323;49.394;8.434;2023-12-20T10:20:23;17.00;68.10
19817;DHT22;68323;49.394;8.434;2023-12-20T10:22:49;16.20;70.20
19817;DHT22;68323;49.394;8.434;2023-12-20T10:25:15;15.50;72.70
19817;DHT22;68323;49.394;8.434;2023-12-20T10:27:43;14.80;74.70
19817;DHT22;68323;49.394;8.434;2023-12-20T10:30:09;14.30;77.60
19817;DHT22;68323;49.394;8.434;2023-12-20T10:32:35;13.80;78.10
19817;DHT22;68323;49.394;8.434;2023-12-20T10:35:01;13.30;80.10
19817;DHT22;68323;49.394;8.434;2023-12-20T10:37:28;12.80;82.10
19817;DHT22;68323;49.394;8.434;2023-12-20T10:39:54;12.40;84.30
19817;DHT22;68323;49.394;8.434;2023-12-20T10:42:26;12.10;89.00
19817;DHT22;68323;49.394;8.434;2023-12-20T10:44:52;11.80;90.40
19817;DHT22;68323;49.394;8.434;2023-12-20T10:47:20;11.60;91.10
19817;DHT22;68323;49.394;8.434;2023-12-20T10:49:46;11.40;91.30
19817;DHT22;68323;49.394;8.434;2023-12-20T10:52:12;11.20;91.40
19817;DHT22;68323;49.394;8.434;2023-12-20T10:54:42;11.10;91.80
19817;DHT22;68323;49.394;8.434;2023-12-20T10:57:07;11.00;92.40
19817;DHT22;68323;49.394;8.434;2023-12-20T10:59:36;10.90;93.10
19817;DHT22;68323;49.394;8.434;2023-12-20T11:02:05;10.90;93.60
19817;DHT22;68323;49.394;8.434;2023-12-20T11:07:13;10.90;95.00
19817;DHT22;68323;49.394;8.434;2023-12-20T11:09:56;10.80;95.30
19817;DHT22;68323;49.394;8.434;2023-12-20T11:12:35;10.70;95.50
19817;DHT22;68323;49.394;8.434;2023-12-20T11:15:04;10.70;96.20
19817;DHT22;68323;49.394;8.434;2023-12-20T11:17:31;10.50;97.20
19817;DHT22;68323;49.394;8.434;2023-12-20T11:22:30;10.30;98.60
19817;DHT22;68323;49.394;8.434;2023-12-20T11:25:03;10.30;99.50
19817;DHT22;68323;49.394;8.434;2023-12-20T11:27:30;10.20;99.90
19817;DHT22;68323;49.394;8.434;2023-12-20T11:29:57;10.10;99.90
19817;DHT22;68323;49.394;8.434;2023-12-20T11:37:21;9.90;99.90
19817;DHT22;68323;49.394;8.434;2023-12-20T11:39:59;9.80;99.90
19817;DHT22;68323;49.394;8.434;2023-12-20T11:42:25;9.70;99.90
19817;DHT22;68323;49.394;8.434;2023-12-20T11:44:51;9.70;99.90
19817;DHT22;68323;49.394;8.434;2023-12-20T11:47:18;9.60;99.90
19817;DHT22;68323;49.394;8.434;2023-12-20T11:49:47;9.60;99.90
19817;DHT22;68323;49.394;8.434;2023-12-20T11:52:19;9.60;99.90
19817;DHT22;68323;49.394;8.434;2023-12-20T11:54:44;9.60;99.90
19817;DHT22;68323;49.394;8.434;2023-12-20T11:57:10;9.60;99.90
19817;DHT22;68323;49.394;8.434;2023-12-20T11:59:39;9.50;99.90
19817;DHT22;68323;49.394;8.434;2023-12-20T12:02:05;9.60;99.90
19817;DHT22;68323;49.394;8.434;2023-12-20T12:04:31;9.50;99.90
19817;DHT22;68323;49.394;8.434;2023-12-20T12:06:57;9.50;99.90
19817;DHT22;68323;49.394;8.434;2023-12-20T12:09:22;9.40;99.90
19817;DHT22;68323;49.394;8.434;2023-12-20T12:11:48;9.40;99.90
19817;DHT22;68323;49.394;8.434;2023-12-20T12:14:14;9.40;99.90
19817;DHT22;68323;49.394;8.434;2023-12-20T12:16:41;9.40;99.90
19817;DHT22;68323;49.394;8.434;2023-12-20T12:19:07;9.30;99.90
19817;DHT22;68323;49.394;8.434;2023-12-20T12:21:47;9.40;99.90
19817;DHT22;68323;49.394;8.434;2023-12-20T12:24:13;9.30;99.90
19817;DHT22;68323;49.394;8.434;2023-12-20T12:26:38;9.30;99.90
19817;DHT22;68323;49.394;8.434;2023-12-20T12:29:07;9.30;99.90
19817;DHT22;68323;49.394;8.434;2023-12-20T12:31:33;9.30;99.90
19817;DHT22;68323;49.394;8.434;2023-12-20T12:33:59;9.30;99.90
19817;DHT22;68323;49.394;8.434;2023-12-20T12:36:24;9.30;99.90
19817;DHT22;68323;49.394;8.434;2023-12-20T12:38:50;9.30;99.90
19817;DHT22;68323;49.394;8.434;2023-12-20T12:41:15;9.20;99.90
19817;DHT22;68323;49.394;8.434;2023-12-20T12:43:41;9.20;99.90
19817;DHT22;68323;49.394;8.434;2023-12-20T12:46:07;9.10;99.90
19817;DHT22;68323;49.394;8.434;2023-12-20T12:48:36;9.20;99.90
19817;DHT22;68323;49.394;8.434;2023-12-20T12:51:01;9.10;99.90
19817;DHT22;68323;49.394;8.434;2023-12-20T12:53:27;9.00;99.90
19817;DHT22;68323;49.394;8.434;2023-12-20T12:55:55;9.00;99.90
19817;DHT22;68323;49.394;8.434;2023-12-20T12:58:21;8.90;99.90
19817;DHT22;68323;49.394;8.434;2023-12-20T13:00:47;8.90;99.90
19817;DHT22;68323;49.394;8.434;2023-12-20T13:03:13;8.90;99.90
19817;DHT22;68323;49.394;8.434;2023-12-20T13:05:39;8.90;99.90
19817;DHT22;68323;49.394;8.434;2023-12-20T13:08:04;8.90;99.90
19817;DHT22;68323;49.394;8.434;2023-12-20T13:10:30;8.90;99.90
19817;DHT22;68323;49.394;8.434;2023-12-20T13:12:56;8.90;99.90
19817;DHT22;68323;49.394;8.434;2023-12-20T13:15:24;8.80;99.90
19817;DHT22;68323;49.394;8.434;2023-12-20T13:17:50;8.90;99.90
19817;DHT22;68323;49.394;8.434;2023-12-20T13:20:16;8.90;99.90
19817;DHT22;68323;49.394;8.434;2023-12-20T13:22:41;8.90;99.90
19817;DHT22;68323;49.394;8.434;2023-12-20T13:25:07;8.90;99.90
19817;DHT22;68323;49.394;8.434;2023-12-20T13:27:33;8.90;99.90
19817;DHT22;68323;49.394;8.434;2023-12-20T13:29:58;8.90;99.90
19817;DHT22;68323;49.394;8.434;2023-12-20T13:32:24;8.90;99.90
19817;DHT22;68323;49.394;8.434;2023-12-20T13:34:50;9.00;99.90
19817;DHT22;68323;49.394;8.434;2023-12-20T13:37:16;9.10;99.90
19817;DHT22;68323;49.394;8.434;2023-12-20T13:39:41;9.30;99.90
19817;DHT22;68323;49.394;8.434;2023-12-20T13:42:07;9.40;99.90
19817;DHT22;68323;49.394;8.434;2023-12-20T13:44:35;9.50;99.90
19817;DHT22;68323;49.394;8.434;2023-12-20T13:47:01;9.60;99.90
19817;DHT22;68323;49.394;8.434;2023-12-20T13:49:27;9.70;99.90
19817;DHT22;68323;49.394;8.434;2023-12-20T13:51:54;9.80;99.90
19817;DHT22;68323;49.394;8.434;2023-12-20T13:54:20;10.00;99.90
19817;DHT22;68323;49.394;8.434;2023-12-20T13:56:47;10.00;99.90
19817;DHT22;68323;49.394;8.434;2023-12-20T13:59:15;10.10;99.90
19817;DHT22;68323;49.394;8.434;2023-12-20T14:01:41;10.10;99.90
19817;DHT22;68323;49.394;8.434;2023-12-20T14:04:07;10.10;99.90
19817;DHT22;68323;49.394;8.434;2023-12-20T14:06:33;10.20;99.90
19817;DHT22;68323;49.394;8.434;2023-12-20T14:09:02;10.20;99.90
19817;DHT22;68323;49.394;8.434;2023-12-20T14:11:28;10.20;99.90
19817;DHT22;68323;49.394;8.434;2023-12-20T14:13:54;10.10;99.90
19817;DHT22;68323;49.394;8.434;2023-12-20T14:16:25;10.10;99.90
19817;DHT22;68323;49.394;8.434;2023-12-20T14:18:51;10.10;99.90
19817;DHT22;68323;49.394;8.434;2023-12-20T14:21:23;10.10;99.90
19817;DHT22;68323;49.394;8.434;2023-12-20T14:23:49;10.00;99.90
19817;DHT22;68323;49.394;8.434;2023-12-20T14:26:17;10.10;99.90
19817;DHT22;68323;49.394;8.434;2023-12-20T14:28:43;10.10;99.90
19817;DHT22;68323;49.394;8.434;2023-12-20T14:31:09;10.20;99.90
19817;DHT22;68323;49.394;8.434;2023-12-20T14:33:36;10.20;99.90
19817;DHT22;68323;49.394;8.434;2023-12-20T14:36:04;10.10;99.90
19817;DHT22;68323;49.394;8.434;2023-12-20T14:38:31;10.10;99.90
19817;DHT22;68323;49.394;8.434;2023-12-20T14:40:56;10.10;99.90
19817;DHT22;68323;49.394;8.434;2023-12-20T14:43:25;10.00;99.90
19817;DHT22;68323;49.394;8.434;2023-12-20T14:45:52;9.80;99.90
19817;DHT22;68323;49.394;8.434;2023-12-20T14:48:17;9.70;99.90
19817;DHT22;68323;49.394;8.434;2023-12-20T14:50:44;9.60;99.90
19817;DHT22;68323;49.394;8.434;2023-12-20T14:53:09;9.40;99.90
19817;DHT22;68323;49.394;8.434;2023-12-20T14:55:35;9.30;99.90
19817;DHT22;68323;49.394;8.434;2023-12-20T14:58:01;9.30;99.90
19817;DHT22;68323;49.394;8.434;2023-12-20T15:00:27;9.10;99.90
19817;DHT22;68323;49.394;8.434;2023-12-20T15:02:53;9.10;99.90
19817;DHT22;68323;49.394;8.434;2023-12-20T15:05:21;9.10;99.90
19817;DHT22;68323;49.394;8.434;2023-12-20T15:07:47;9.00;99.90
19817;DHT22;68323;49.394;8.434;2023-12-20T15:10:13;8.90;99.90
19817;DHT22;68323;49.394;8.434;2023-12-20T15:12:39;8.80;99.90
19817;DHT22;68323;49.394;8.434;2023-12-20T15:15:05;8.90;99.90
19817;DHT22;68323;49.394;8.434;2023-12-20T15:17:31;8.80;99.90
19817;DHT22;68323;49.394;8.434;2023-12-20T15:19:59;8.80;99.90
19817;DHT22;68323;49.394;8.434;2023-12-20T15:22:24;8.70;99.90
19817;DHT22;68323;49.394;8.434;2023-12-20T15:24:52;8.70;99.90
19817;DHT22;68323;49.394;8.434;2023-12-20T15:27:20;8.70;99.90
19817;DHT22;68323;49.394;8.434;2023-12-20T15:29:48;8.60;99.90
19817;DHT22;68323;49.394;8.434;2023-12-20T15:32:15;8.70;99.90
19817;DHT22;68323;49.394;8.434;2023-12-20T15:34:44;8.60;99.90
19817;DHT22;68323;49.394;8.434;2023-12-20T15:37:10;8.60;99.90
19817;DHT22;68323;49.394;8.434;2023-12-20T15:39:37;8.60;99.90
19817;DHT22;68323;49.394;8.434;2023-12-20T15:42:03;8.60;99.90
19817;DHT22;68323;49.394;8.434;2023-12-20T15:44:29;8.50;99.90
19817;DHT22;68323;49.394;8.434;2023-12-20T15:46:55;8.40;99.90
19817;DHT22;68323;49.394;8.434;2023-12-20T15:49:20;8.40;99.90
19817;DHT22;68323;49.394;8.434;2023-12-20T15:51:46;8.40;99.90
19817;DHT22;68323;49.394;8.434;2023-12-20T15:54:12;8.30;99.90
19817;DHT22;68323;49.394;8.434;2023-12-20T15:56:38;8.30;99.90
19817;DHT22;68323;49.394;8.434;2023-12-20T15:59:08;8.30;99.90
19817;DHT22;68323;49.394;8.434;2023-12-20T16:01:35;8.30;99.90
19817;DHT22;68323;49.394;8.434;2023-12-20T16:04:01;8.30;99.90
19817;DHT22;68323;49.394;8.434;2023-12-20T16:06:27;8.30;99.90